createdAt,value
2022-08-07T00:00:52.969Z,99619.85
2022-08-07T00:03:25.614Z,99620.58
2022-08-07T00:05:54.268Z,99616.48
2022-08-07T00:08:25.328Z,99611.09
2022-08-07T00:10:57.261Z,99597.77
2022-08-07T00:13:26.765Z,99601.28
2022-08-07T00:15:55.751Z,99604.41
2022-08-07T00:18:26.503Z,99601.40
2022-08-07T00:21:01.897Z,99603.19
2022-08-07T00:23:32.459Z,99602.88
2022-08-07T00:26:13.064Z,99600.19
2022-08-07T00:28:56.455Z,99600.66
2022-08-07T00:31:37.473Z,99600.20
2022-08-07T00:34:08.808Z,99608.68
2022-08-07T00:36:43.374Z,99611.11
2022-08-07T00:39:16.929Z,99609.46
2022-08-07T00:42:01.988Z,99617.48
2022-08-07T00:44:34.765Z,99620.56
2022-08-07T00:47:15.950Z,99617.85
2022-08-07T00:50:19.006Z,99621.55
2022-08-07T00:52:42.835Z,99614.71
2022-08-07T00:55:17.261Z,99611.73
2022-08-07T00:57:55.390Z,99610.23
2022-08-07T01:00:24.774Z,99606.91
2022-08-07T01:02:52.619Z,99612.77
2022-08-07T01:05:20.989Z,99612.58
2022-08-07T01:07:52.757Z,99605.83
2022-08-07T01:10:23.115Z,99608.22
2022-08-07T01:12:54.708Z,99611.65
2022-08-07T01:15:35.708Z,99614.45
2022-08-07T01:18:17.689Z,99614.11
2022-08-07T01:20:59.138Z,99604.61
2022-08-07T01:23:36.333Z,99604.27
2022-08-07T01:26:08.281Z,99608.99
2022-08-07T01:28:46.217Z,99601.12
2022-08-07T01:31:18.048Z,99604.64
2022-08-07T01:33:55.553Z,99607.13
2022-08-07T01:36:33.614Z,99609.65
2022-08-07T01:39:09.890Z,99611.52
2022-08-07T01:41:40.886Z,99621.14
2022-08-07T01:44:27.776Z,99622.45
2022-08-07T01:46:56.101Z,99628.61
2022-08-07T01:49:24.153Z,99627.89
2022-08-07T01:52:02.015Z,99626.73
2022-08-07T01:54:37.619Z,99620.60
2022-08-07T01:57:25.067Z,99619.10
2022-08-07T02:00:13.285Z,99617.81
2022-08-07T02:03:12.585Z,99620.98
2022-08-07T02:05:47.824Z,99615.66
2022-08-07T02:08:29.559Z,99617.61
2022-08-07T02:11:00.337Z,99617.50
2022-08-07T02:13:57.964Z,99623.34
2022-08-07T02:16:28.612Z,99623.21
2022-08-07T02:19:05.724Z,99629.35
2022-08-07T02:21:56.620Z,99631.38
2022-08-07T02:24:29.340Z,99632.23
2022-08-07T02:27:02.456Z,99628.21
2022-08-07T02:29:31.893Z,99622.84
2022-08-07T02:32:02.545Z,99621.25
2022-08-07T02:34:33.838Z,99630.91
2022-08-07T02:37:08.341Z,99631.70
2022-08-07T02:39:43.418Z,99634.56
2022-08-07T02:42:29.857Z,99637.83
2022-08-07T02:45:57.353Z,99636.36
2022-08-07T02:47:55.195Z,99640.99
2022-08-07T02:50:27.108Z,99643.94
2022-08-07T02:53:10.893Z,99640.35
2022-08-07T02:56:04.054Z,99639.88
2022-08-07T02:58:35.604Z,99638.83
2022-08-07T03:01:04.196Z,99637.83
2022-08-07T03:03:48.942Z,99637.80
2022-08-07T03:06:25.504Z,99638.42
2022-08-07T03:08:54.511Z,99642.71
2022-08-07T03:11:25.329Z,99642.47
2022-08-07T03:13:57.517Z,99646.98
2022-08-07T03:16:31.085Z,99647.33
2022-08-07T03:19:00.434Z,99653.65
2022-08-07T03:21:33.213Z,99651.87
2022-08-07T03:24:18.256Z,99650.39
2022-08-07T03:26:59.114Z,99649.67
2022-08-07T03:29:49.589Z,99653.05
2022-08-07T03:32:23.360Z,99654.39
2022-08-07T03:35:17.043Z,99659.94
2022-08-07T03:37:46.154Z,99660.77
2022-08-07T03:40:22.353Z,99662.52
2022-08-07T03:42:51.606Z,99663.27
2022-08-07T03:45:30.636Z,99665.53
2022-08-07T03:48:00.631Z,99669.10
2022-08-07T03:50:29.766Z,99668.18
2022-08-07T03:52:59.669Z,99673.56
2022-08-07T03:55:52.744Z,99673.80
2022-08-07T03:59:05.321Z,99673.24
2022-08-07T04:01:11.179Z,99684.42
2022-08-07T04:03:53.361Z,99682.89
2022-08-07T04:06:37.740Z,99686.23
2022-08-07T04:09:08.475Z,99686.36
2022-08-07T04:12:27.984Z,99683.45
2022-08-07T04:14:38.635Z,99689.08
2022-08-07T04:17:20.080Z,99691.40
2022-08-07T04:19:52.011Z,99690.86
2022-08-07T04:22:28.887Z,99693.38
2022-08-07T04:25:01.622Z,99688.59
2022-08-07T04:27:35.840Z,99695.85
2022-08-07T04:30:11.749Z,99695.31
2022-08-07T04:32:44.959Z,99693.25
2022-08-07T04:35:15.853Z,99700.34
2022-08-07T04:38:03.106Z,99703.00
2022-08-07T04:40:32.436Z,99703.09
2022-08-07T04:43:03.278Z,99705.72
2022-08-07T04:46:20.090Z,99701.20
2022-08-07T04:49:24.814Z,99708.63
2022-08-07T04:52:15.691Z,99708.60
2022-08-07T04:54:58.071Z,99710.59
2022-08-07T04:58:13.923Z,99714.48
2022-08-07T05:00:41.011Z,99716.89
2022-08-07T05:04:00.036Z,99711.99
2022-08-07T05:06:43.532Z,99715.21
2022-08-07T05:09:45.430Z,99721.61
2022-08-07T05:12:27.141Z,99719.75
2022-08-07T05:15:23.554Z,99719.62
2022-08-07T05:17:57.954Z,99723.85
2022-08-07T05:20:35.102Z,99722.84
2022-08-07T05:23:15.332Z,99727.45
2022-08-07T05:26:10.782Z,99728.73
2022-08-07T05:28:35.572Z,99729.00
2022-08-07T05:31:05.452Z,99734.66
2022-08-07T05:33:36.995Z,99730.69
2022-08-07T05:36:12.077Z,99722.96
2022-08-07T05:39:01.419Z,99727.02
2022-08-07T05:42:02.959Z,99724.37
2022-08-07T05:44:30.942Z,99730.62
2022-08-07T05:47:01.107Z,99728.42
2022-08-07T05:49:40.884Z,99734.02
2022-08-07T05:52:11.744Z,99731.91
2022-08-07T05:54:53.438Z,99726.25
2022-08-07T05:57:26.634Z,99731.21
2022-08-07T06:00:01.308Z,99736.67
2022-08-07T06:02:33.223Z,99734.75
2022-08-07T06:05:15.773Z,99735.67
2022-08-07T06:08:14.237Z,99735.79
2022-08-07T06:10:32.442Z,99734.95
2022-08-07T06:13:02.269Z,99731.21
2022-08-07T06:15:39.352Z,99733.45
2022-08-07T06:18:14.015Z,99732.90
2022-08-07T06:20:51.165Z,99731.59
2022-08-07T06:24:38.365Z,99735.19
2022-08-07T06:26:22.041Z,99736.03
2022-08-07T06:29:00.015Z,99736.23
2022-08-07T06:31:47.237Z,99733.04
2022-08-07T06:34:19.621Z,99733.37
2022-08-07T06:36:52.194Z,99731.77
2022-08-07T06:40:17.434Z,99731.88
2022-08-07T06:42:26.627Z,99731.29
2022-08-07T06:45:04.321Z,99727.70
2022-08-07T06:47:47.912Z,99730.77
2022-08-07T06:50:21.455Z,99726.10
2022-08-07T06:52:55.895Z,99732.27
2022-08-07T06:55:32.464Z,99726.14
2022-08-07T06:58:16.678Z,99727.48
2022-08-07T07:00:52.912Z,99729.52
2022-08-07T07:03:37.682Z,99727.77
2022-08-07T07:06:11.045Z,99736.22
2022-08-07T07:08:46.830Z,99734.30
2022-08-07T07:12:07.748Z,99733.23
2022-08-07T07:14:05.249Z,99732.62
2022-08-07T07:16:49.550Z,99737.94
2022-08-07T07:19:56.552Z,99733.98
2022-08-07T07:22:35.783Z,99732.73
2022-08-07T07:26:31.382Z,99726.51
2022-08-07T07:28:42.249Z,99729.55
2022-08-07T07:31:17.379Z,99726.59
2022-08-07T07:33:57.063Z,99723.02
2022-08-07T07:36:32.462Z,99720.67
2022-08-07T07:39:02.589Z,99719.65
2022-08-07T07:42:02.348Z,99714.66
2022-08-07T07:44:26.549Z,99710.09
2022-08-07T07:47:01.250Z,99711.85
2022-08-07T07:50:35.013Z,99715.18
2022-08-07T07:52:30.988Z,99709.70
2022-08-07T07:55:01.023Z,99715.07
2022-08-07T07:57:50.388Z,99710.33
2022-08-07T08:00:29.479Z,99710.25
2022-08-07T08:03:16.639Z,99715.04
2022-08-07T08:05:57.923Z,99709.85
2022-08-07T08:08:36.174Z,99705.13
2022-08-07T08:11:08.331Z,99696.27
2022-08-07T08:13:53.136Z,99701.05
2022-08-07T08:16:29.597Z,99698.23
2022-08-07T08:19:17.947Z,99702.13
2022-08-07T08:22:11.500Z,99701.70
2022-08-07T08:25:18.963Z,99701.27
2022-08-07T08:27:57.154Z,99706.73
2022-08-07T08:30:34.421Z,99707.48
2022-08-07T08:33:10.584Z,99707.06
2022-08-07T08:35:49.870Z,99712.02
2022-08-07T08:38:29.324Z,99711.48
2022-08-07T08:41:08.119Z,99716.98
2022-08-07T08:43:55.830Z,99714.59
2022-08-07T08:46:44.936Z,99713.59
2022-08-07T08:49:33.217Z,99714.15
2022-08-07T08:52:16.406Z,99713.48
2022-08-07T08:54:59.518Z,99713.20
2022-08-07T08:57:46.710Z,99708.09
2022-08-07T09:00:16.835Z,99715.13
2022-08-07T09:02:57.577Z,99719.54
2022-08-07T09:05:43.550Z,99720.09
2022-08-07T09:08:24.248Z,99716.02
2022-08-07T09:11:24.255Z,99716.06
2022-08-07T09:14:19.371Z,99715.57
2022-08-07T09:16:47.595Z,99711.33
2022-08-07T09:19:53.525Z,99713.56
2022-08-07T09:24:31.835Z,99710.41
2022-08-07T09:26:13.542Z,99708.98
2022-08-07T09:30:04.150Z,99706.25
2022-08-07T09:31:56.324Z,99696.81
2022-08-07T09:34:45.134Z,99689.77
2022-08-07T09:37:53.696Z,99694.21
2022-08-07T09:40:59.649Z,99690.71
2022-08-07T09:44:06.001Z,99687.98
2022-08-07T09:47:50.342Z,99679.88
2022-08-07T09:50:18.922Z,99684.90
2022-08-07T09:52:52.506Z,99680.26
2022-08-07T09:56:03.258Z,99678.21
2022-08-07T09:58:48.803Z,99671.61
2022-08-07T10:01:51.375Z,99666.75
2022-08-07T10:04:47.760Z,99663.98
2022-08-07T10:08:03.007Z,99657.28
2022-08-07T10:11:59.705Z,99655.61
2022-08-07T10:14:11.364Z,99647.84
2022-08-07T10:17:17.255Z,99651.98
2022-08-07T10:19:53.686Z,99640.11
2022-08-07T10:22:51.000Z,99645.06
2022-08-07T10:25:52.917Z,99641.33
2022-08-07T10:28:36.961Z,99637.92
2022-08-07T10:31:31.510Z,99646.17
2022-08-07T10:34:52.140Z,99645.70
2022-08-07T10:38:09.904Z,99646.32
2022-08-07T10:40:45.388Z,99639.93
2022-08-07T10:43:34.671Z,99636.48
2022-08-07T10:46:13.547Z,99632.69
2022-08-07T10:48:48.876Z,99634.46
2022-08-07T10:51:39.456Z,99632.36
2022-08-07T10:54:53.457Z,99630.83
2022-08-07T10:57:46.043Z,99631.67
2022-08-07T11:00:39.164Z,99626.29
2022-08-07T11:03:37.819Z,99626.27
2022-08-07T11:06:23.047Z,99618.94
2022-08-07T11:09:11.200Z,99613.66
2022-08-07T11:11:51.831Z,99611.70
2022-08-07T11:14:45.968Z,99607.48
2022-08-07T11:17:42.682Z,99607.38
2022-08-07T11:20:18.298Z,99613.41
2022-08-07T11:22:59.692Z,99609.04
2022-08-07T11:25:47.962Z,99608.13
2022-08-07T11:28:30.326Z,99605.10
2022-08-07T11:31:13.548Z,99607.06
2022-08-07T11:34:13.028Z,99602.86
2022-08-07T11:37:17.420Z,99598.35
2022-08-07T11:40:04.532Z,99591.98
2022-08-07T11:42:43.101Z,99595.86
2022-08-07T11:45:36.490Z,99589.39
2022-08-07T11:48:29.069Z,99585.94
2022-08-07T11:51:41.657Z,99585.06
2022-08-07T11:54:35.915Z,99583.23
2022-08-07T11:57:58.026Z,99580.83
2022-08-07T12:00:28.529Z,99578.94
2022-08-07T12:03:45.083Z,99577.20
2022-08-07T12:06:39.200Z,99581.08
2022-08-07T12:09:25.063Z,99580.35
2022-08-07T12:12:09.502Z,99573.27
2022-08-07T12:14:52.684Z,99572.52
2022-08-07T12:17:33.490Z,99559.84
2022-08-07T12:20:18.540Z,99564.41
2022-08-07T12:24:05.032Z,99564.94
2022-08-07T12:26:29.763Z,99562.73
2022-08-07T12:29:09.618Z,99558.92
2022-08-07T12:31:53.272Z,99549.52
2022-08-07T12:34:34.625Z,99549.77
2022-08-07T12:37:11.143Z,99550.38
2022-08-07T12:39:51.540Z,99549.64
2022-08-07T12:42:32.058Z,99550.50
2022-08-07T12:45:11.941Z,99547.27
2022-08-07T12:47:50.132Z,99541.81
2022-08-07T12:50:40.078Z,99540.84
2022-08-07T12:54:24.269Z,99536.54
2022-08-07T12:56:51.192Z,99533.27
2022-08-07T12:59:33.040Z,99530.62
2022-08-07T13:02:33.319Z,99528.41
2022-08-07T13:06:04.997Z,99525.58
2022-08-07T13:08:38.783Z,99521.16
2022-08-07T13:11:09.740Z,99521.02
2022-08-07T13:14:01.800Z,99519.42
2022-08-07T13:16:56.432Z,99505.55
2022-08-07T13:19:50.814Z,99511.63
2022-08-07T13:22:32.662Z,99515.33
2022-08-07T13:25:06.852Z,99512.61
2022-08-07T13:28:11.369Z,99517.09
2022-08-07T13:30:41.399Z,99507.35
2022-08-07T13:34:30.594Z,99503.70
2022-08-07T13:36:40.563Z,99500.81
2022-08-07T13:39:28.377Z,99497.92
2022-08-07T13:42:14.721Z,99497.65
2022-08-07T13:45:20.488Z,99495.92
2022-08-07T13:48:07.881Z,99490.90
2022-08-07T13:50:32.719Z,99489.10
2022-08-07T13:53:08.056Z,99485.00
2022-08-07T13:55:54.234Z,99483.13
2022-08-07T13:58:50.401Z,99479.75
2022-08-07T14:01:27.489Z,99475.41
2022-08-07T14:04:12.978Z,99474.42
2022-08-07T14:06:50.263Z,99476.13
2022-08-07T14:10:12.081Z,99475.45
2022-08-07T14:12:36.207Z,99474.13
2022-08-07T14:15:23.718Z,99473.61
2022-08-07T14:18:27.669Z,99472.31
2022-08-07T14:20:49.318Z,99470.27
2022-08-07T14:23:59.167Z,99462.77
2022-08-07T14:26:29.903Z,99463.27
2022-08-07T14:29:10.413Z,99460.13
2022-08-07T14:31:53.420Z,99458.69
2022-08-07T14:34:30.337Z,99458.86
2022-08-07T14:37:03.425Z,99446.96
2022-08-07T14:40:16.870Z,99453.88
2022-08-07T14:42:31.502Z,99448.33
2022-08-07T14:45:21.310Z,99453.88
2022-08-07T14:47:53.040Z,99452.48
2022-08-07T14:50:28.919Z,99452.29
2022-08-07T14:58:54.129Z,99451.39
2022-08-07T15:04:21.870Z,99450.58
2022-08-07T15:06:53.486Z,99449.09
2022-08-07T15:09:59.120Z,99446.27
2022-08-07T15:12:25.994Z,99456.44
2022-08-07T15:15:17.359Z,99454.42
2022-08-07T15:17:56.963Z,99450.73
2022-08-07T15:20:35.591Z,99447.30
2022-08-07T15:23:16.953Z,99453.39
2022-08-07T15:25:55.663Z,99452.23
2022-08-07T15:32:01.361Z,99453.40
2022-08-07T15:34:15.058Z,99449.70
2022-08-07T15:37:04.247Z,99450.65
2022-08-07T15:39:57.163Z,99444.95
2022-08-07T15:42:46.757Z,99448.77
2022-08-07T15:45:25.011Z,99446.84
2022-08-07T15:48:12.846Z,99447.86
2022-08-07T15:53:53.301Z,99446.23
2022-08-07T15:56:43.059Z,99445.37
2022-08-07T15:59:20.295Z,99443.28
2022-08-07T16:02:10.289Z,99447.90
2022-08-07T16:04:45.409Z,99449.61
2022-08-07T16:08:31.646Z,99448.34
2022-08-07T16:10:16.466Z,99445.06
2022-08-07T16:13:17.754Z,99449.30
2022-08-07T16:16:48.417Z,99444.42
2022-08-07T16:19:59.774Z,99440.33
2022-08-07T16:22:54.642Z,99440.20
2022-08-07T16:25:56.706Z,99439.77
2022-08-07T16:30:07.885Z,99438.20
2022-08-07T16:32:03.970Z,99429.85
2022-08-07T16:34:48.820Z,99429.71
2022-08-07T16:38:04.243Z,99430.54
2022-08-07T16:41:04.286Z,99427.65
2022-08-07T16:44:53.609Z,99427.45
2022-08-07T16:47:45.397Z,99431.05
2022-08-07T16:50:38.689Z,99435.95
2022-08-07T16:54:01.942Z,99434.58
2022-08-07T16:56:19.351Z,99439.77
2022-08-07T16:59:44.148Z,99438.94
2022-08-07T17:02:54.223Z,99443.77
2022-08-07T17:06:02.060Z,99443.10
2022-08-07T17:08:09.902Z,99441.53
2022-08-07T17:10:54.778Z,99435.73
2022-08-07T17:14:19.279Z,99436.23
2022-08-07T17:16:45.242Z,99437.13
2022-08-07T17:20:02.989Z,99438.35
2022-08-07T17:22:45.527Z,99435.69
2022-08-07T17:25:47.775Z,99425.90
2022-08-07T17:28:25.301Z,99433.13
2022-08-07T17:31:16.541Z,99441.64
2022-08-07T17:34:15.274Z,99445.94
2022-08-07T17:36:59.979Z,99447.63
2022-08-07T17:40:03.337Z,99442.15
2022-08-07T17:42:58.225Z,99447.01
2022-08-07T17:45:35.320Z,99442.99
2022-08-07T17:48:12.850Z,99442.98
2022-08-07T17:51:01.638Z,99442.41
2022-08-07T17:54:00.796Z,99442.23
2022-08-07T17:56:36.567Z,99441.27
2022-08-07T17:59:25.632Z,99446.25
2022-08-07T18:02:56.544Z,99446.87
2022-08-07T18:06:03.122Z,99449.77
2022-08-07T18:09:01.373Z,99447.15
2022-08-07T18:12:16.353Z,99453.33
2022-08-07T18:14:51.127Z,99455.95
2022-08-07T18:18:46.372Z,99453.55
2022-08-07T18:21:12.328Z,99458.94
2022-08-07T18:23:56.108Z,99461.88
2022-08-07T18:27:11.483Z,99460.37
2022-08-07T18:30:08.389Z,99467.15
2022-08-07T18:33:12.081Z,99466.76
2022-08-07T18:35:58.718Z,99468.90
2022-08-07T18:38:55.037Z,99473.98
2022-08-07T18:41:53.952Z,99470.50
2022-08-07T18:44:31.940Z,99467.20
2022-08-07T18:47:08.671Z,99465.20
2022-08-07T18:50:30.761Z,99471.27
2022-08-07T18:53:04.582Z,99468.23
2022-08-07T18:56:16.111Z,99474.10
2022-08-07T18:59:47.159Z,99478.44
2022-08-07T19:02:33.160Z,99479.58
2022-08-07T19:05:15.106Z,99487.92
2022-08-07T19:07:57.436Z,99487.77
2022-08-07T19:10:55.766Z,99485.12
2022-08-07T19:13:50.051Z,99484.89
2022-08-07T19:17:06.430Z,99483.95
2022-08-07T19:20:28.986Z,99487.61
2022-08-07T19:23:18.685Z,99484.46
2022-08-07T19:26:21.587Z,99486.98
2022-08-07T19:30:55.781Z,99495.23
2022-08-07T19:32:08.236Z,99493.23
2022-08-07T19:34:38.585Z,99497.81
2022-08-07T19:37:17.264Z,99500.15
2022-08-07T19:39:57.199Z,99496.23
2022-08-07T19:42:30.587Z,99499.98
2022-08-07T19:45:08.505Z,99502.23
2022-08-07T19:47:41.957Z,99506.09
2022-08-07T19:50:44.510Z,99513.08
2022-08-07T19:53:00.995Z,99505.71
2022-08-07T19:55:56.365Z,99508.14
2022-08-07T19:58:27.983Z,99502.66
2022-08-07T20:00:58.540Z,99508.45
2022-08-07T20:03:33.569Z,99513.25
2022-08-07T20:06:15.397Z,99514.73
2022-08-07T20:09:01.789Z,99517.52
2022-08-07T20:12:01.368Z,99518.95
2022-08-07T20:14:31.624Z,99517.88
2022-08-07T20:17:03.500Z,99517.60
2022-08-07T20:19:48.219Z,99515.70
2022-08-07T20:22:34.182Z,99514.64
2022-08-07T20:25:19.534Z,99511.89
2022-08-07T20:27:58.122Z,99511.48
2022-08-07T20:30:40.248Z,99506.73
2022-08-07T20:33:24.302Z,99510.98
2022-08-07T20:36:07.428Z,99502.46
2022-08-07T20:38:53.273Z,99511.19
2022-08-07T20:41:34.030Z,99507.36
2022-08-07T20:44:12.340Z,99510.39
2022-08-07T20:46:43.937Z,99510.79
2022-08-07T20:49:59.871Z,99516.74
2022-08-07T20:52:09.331Z,99515.95
2022-08-07T20:54:53.766Z,99520.23
2022-08-07T20:57:25.110Z,99515.86
2022-08-07T21:00:04.484Z,99520.50
2022-08-07T21:03:00.775Z,99523.03
2022-08-07T21:05:51.280Z,99524.02
2022-08-07T21:08:39.332Z,99521.70
2022-08-07T21:11:14.579Z,99519.23
2022-08-07T21:14:20.237Z,99519.56
2022-08-07T21:16:56.253Z,99525.60
2022-08-07T21:19:51.757Z,99520.06
2022-08-07T21:22:28.211Z,99520.27
2022-08-07T21:25:12.094Z,99527.70
2022-08-07T21:27:53.593Z,99518.86
2022-08-07T21:30:26.147Z,99517.94
2022-08-07T21:33:05.020Z,99515.91
2022-08-07T21:36:04.999Z,99524.30
2022-08-07T21:39:47.373Z,99519.30
2022-08-07T21:42:41.802Z,99518.02
2022-08-07T21:46:04.749Z,99523.83
2022-08-07T21:48:28.905Z,99522.07
2022-08-07T21:51:19.993Z,99521.16
2022-08-07T21:53:55.156Z,99523.69
2022-08-07T21:56:47.027Z,99524.91
2022-08-07T22:00:20.444Z,99523.38
2022-08-07T22:02:56.723Z,99523.54
2022-08-07T22:05:45.333Z,99522.40
2022-08-07T22:08:18.464Z,99524.55
2022-08-07T22:10:55.203Z,99524.94
2022-08-07T22:13:52.102Z,99525.30
2022-08-07T22:16:42.256Z,99528.73
2022-08-07T22:19:29.949Z,99524.74
2022-08-07T22:22:17.947Z,99529.14
2022-08-07T22:25:08.212Z,99531.20
2022-08-07T22:28:07.489Z,99533.42
2022-08-07T22:30:52.043Z,99535.14
2022-08-07T22:33:53.037Z,99535.94
2022-08-07T22:36:31.472Z,99538.54
2022-08-07T22:39:05.153Z,99537.55
2022-08-07T22:42:03.540Z,99540.54
2022-08-07T22:44:58.238Z,99539.89
2022-08-07T22:48:31.325Z,99542.45
2022-08-07T22:51:04.593Z,99536.41
2022-08-07T22:54:07.982Z,99541.92
2022-08-07T22:56:57.730Z,99540.17
2022-08-07T22:59:50.204Z,99539.85
2022-08-07T23:02:31.440Z,99539.14
2022-08-07T23:06:07.698Z,99540.45
2022-08-07T23:10:06.414Z,99538.92
2022-08-07T23:12:00.891Z,99536.31
2022-08-07T23:14:49.484Z,99538.56
2022-08-07T23:17:47.024Z,99542.33
2022-08-07T23:20:53.143Z,99541.42
2022-08-07T23:24:05.318Z,99541.55
2022-08-07T23:26:57.730Z,99545.05
2022-08-07T23:30:38.398Z,99542.00
2022-08-07T23:34:21.804Z,99541.20
2022-08-07T23:35:55.818Z,99545.94
2022-08-07T23:38:47.019Z,99540.32
2022-08-07T23:42:01.750Z,99542.07
2022-08-07T23:45:15.377Z,99542.28
2022-08-07T23:48:25.176Z,99543.15
2022-08-07T23:52:53.471Z,99535.58
2022-08-07T23:54:04.802Z,99542.46
2022-08-07T23:56:53.816Z,99537.44
